createdAt,value
2019-01-21T00:01:23.002Z,35.40
2019-01-21T00:05:21.407Z,28.63
2019-01-21T00:09:19.931Z,28.03
2019-01-21T00:13:18.286Z,38.60
2019-01-21T00:17:22.286Z,38.70
2019-01-21T00:21:16.754Z,33.50
2019-01-21T00:25:15.134Z,28.77
2019-01-21T00:29:13.715Z,39.17
2019-01-21T00:33:22.685Z,30.53
2019-01-21T00:37:21.077Z,34.97
2019-01-21T00:41:19.461Z,34.63
2019-01-21T00:45:18.070Z,39.03
2019-01-21T00:49:16.483Z,38.00
2019-01-21T00:53:14.870Z,38.93
2019-01-21T00:57:13.254Z,29.30
2019-01-21T01:01:11.709Z,29.70
2019-01-21T01:05:10.567Z,33.77
2019-01-21T01:09:09.029Z,30.53
2019-01-21T01:13:07.461Z,29.63
2019-01-21T01:17:23.604Z,29.87
2019-01-21T01:21:21.951Z,41.93
2019-01-21T01:25:20.383Z,30.33
2019-01-21T01:29:23.792Z,36.57
2019-01-21T01:33:22.176Z,35.30
2019-01-21T01:37:20.550Z,31.40
2019-01-21T01:41:18.986Z,29.97
2019-01-21T01:45:23.626Z,25.37
2019-01-21T01:49:24.132Z,32.70
2019-01-21T01:53:23.129Z,25.33
2019-01-21T01:57:21.632Z,40.13
2019-01-21T02:01:38.341Z,36.20
2019-01-21T02:05:36.740Z,40.13
2019-01-21T02:09:35.103Z,32.63
2019-01-21T02:13:33.532Z,35.97
2019-01-21T02:17:31.892Z,33.57
2019-01-21T02:21:30.268Z,30.37
2019-01-21T02:25:32.018Z,28.53
2019-01-21T02:29:36.500Z,35.73
2019-01-21T02:33:57.717Z,30.80
2019-01-21T02:38:08.077Z,30.80
2019-01-21T02:42:18.420Z,33.43
2019-01-21T02:46:35.510Z,27.57
2019-01-21T02:50:59.578Z,28.00
2019-01-21T02:55:13.039Z,24.90
2019-01-21T02:59:20.196Z,30.17
2019-01-21T03:03:27.626Z,27.47
2019-01-21T03:07:35.437Z,29.63
2019-01-21T03:11:49.252Z,32.20
2019-01-21T03:15:51.222Z,33.63
2019-01-21T03:20:01.862Z,25.90
2019-01-21T03:24:06.122Z,29.60
2019-01-21T03:28:19.412Z,25.97
2019-01-21T03:32:37.469Z,26.33
2019-01-21T03:36:41.635Z,24.60
2019-01-21T03:40:48.955Z,23.63
2019-01-21T03:45:08.640Z,27.70
2019-01-21T03:49:12.946Z,21.90
2019-01-21T03:53:27.759Z,26.30
2019-01-21T03:57:32.230Z,30.67
2019-01-21T04:01:33.846Z,25.53
2019-01-21T04:05:58.015Z,24.43
2019-01-21T04:09:59.724Z,24.13
2019-01-21T04:14:19.919Z,24.10
2019-01-21T04:18:38.281Z,27.13
2019-01-21T04:22:51.143Z,22.27
2019-01-21T04:27:12.349Z,25.80
2019-01-21T04:31:28.988Z,21.53
2019-01-21T04:35:36.976Z,21.83
2019-01-21T04:39:52.813Z,21.37
2019-01-21T04:44:06.764Z,26.97
2019-01-21T04:48:14.136Z,21.17
2019-01-21T04:52:36.936Z,25.10
2019-01-21T04:56:41.435Z,21.60
2019-01-21T05:01:05.099Z,24.30
2019-01-21T05:05:38.632Z,26.83
2019-01-21T05:09:40.249Z,27.53
2019-01-21T05:13:58.542Z,25.20
2019-01-21T05:18:21.332Z,28.50
2019-01-21T05:22:23.309Z,22.80
2019-01-21T05:26:27.819Z,22.97
2019-01-21T05:30:48.963Z,28.57
2019-01-21T05:34:53.589Z,24.03
2019-01-21T05:39:04.492Z,26.53
2019-01-21T05:43:39.193Z,28.37
2019-01-21T05:47:56.987Z,24.67
2019-01-21T05:52:15.297Z,30.77
2019-01-21T05:56:39.300Z,29.13
2019-01-21T06:00:59.568Z,32.27
2019-01-21T06:05:17.448Z,25.63
2019-01-21T06:09:24.856Z,26.73
2019-01-21T06:13:59.297Z,27.73
2019-01-21T06:18:17.628Z,24.93
2019-01-21T06:22:21.841Z,24.93
2019-01-21T06:26:55.212Z,27.13
2019-01-21T06:30:59.412Z,23.57
2019-01-21T06:35:01.047Z,33.73
2019-01-21T06:39:26.861Z,25.93
2019-01-21T06:43:46.331Z,24.50
2019-01-21T06:47:53.672Z,26.33
2019-01-21T06:52:12.957Z,25.23
2019-01-21T06:56:38.369Z,22.37
2019-01-21T07:00:59.650Z,30.70
2019-01-21T07:05:28.183Z,24.40
2019-01-21T07:09:44.824Z,26.80
2019-01-21T07:13:52.109Z,29.90
2019-01-21T07:18:11.886Z,23.93
2019-01-21T07:22:25.434Z,27.27
2019-01-21T07:26:36.113Z,32.77
2019-01-21T07:30:37.743Z,27.83
2019-01-21T07:34:39.400Z,27.30
2019-01-21T07:38:43.855Z,25.17
2019-01-21T07:42:51.357Z,21.87
2019-01-21T07:47:08.026Z,27.30
2019-01-21T07:51:23.919Z,24.43
2019-01-21T07:55:25.488Z,26.50
2019-01-21T07:59:49.079Z,26.43
2019-01-21T08:04:25.661Z,24.57
2019-01-21T08:08:32.743Z,31.03
2019-01-21T08:12:40.357Z,25.93
2019-01-21T08:16:44.604Z,29.50
2019-01-21T08:20:48.754Z,26.77
2019-01-21T08:25:02.775Z,25.43
2019-01-21T08:29:17.139Z,24.00
2019-01-21T08:33:54.192Z,23.83
2019-01-21T08:38:27.585Z,32.03
2019-01-21T08:42:35.038Z,29.33
2019-01-21T08:46:36.679Z,28.57
2019-01-21T08:50:47.073Z,28.33
2019-01-21T08:54:54.193Z,28.40
2019-01-21T08:58:58.831Z,28.67
2019-01-21T09:03:15.885Z,32.70
2019-01-21T09:07:49.236Z,30.70
2019-01-21T09:12:07.525Z,31.87
2019-01-21T09:16:28.795Z,30.97
2019-01-21T09:20:39.187Z,29.80
2019-01-21T09:24:43.548Z,28.70
2019-01-21T09:29:13.815Z,30.47
2019-01-21T09:33:21.025Z,37.17
2019-01-21T09:37:37.625Z,29.00
2019-01-21T09:41:41.873Z,38.98
2019-01-21T09:45:58.661Z,42.10
2019-01-21T09:49:57.088Z,41.07
2019-01-21T09:53:56.230Z,36.97
2019-01-21T09:58:00.256Z,35.30
2019-01-21T10:02:00.722Z,39.93
2019-01-21T10:06:02.334Z,27.87
2019-01-21T10:10:06.706Z,30.53
2019-01-21T10:14:12.156Z,35.30
2019-01-21T10:18:42.505Z,25.77
2019-01-21T10:22:53.079Z,27.00
2019-01-21T10:27:03.536Z,37.97
2019-01-21T10:31:59.390Z,30.00
2019-01-21T10:36:11.329Z,28.80
2019-01-21T10:40:18.868Z,34.13
2019-01-21T10:44:20.926Z,28.83
2019-01-21T10:48:22.570Z,33.77
2019-01-21T10:52:44.931Z,28.37
2019-01-21T10:56:55.363Z,36.03
2019-01-21T11:01:03.200Z,28.23
2019-01-21T11:05:07.922Z,28.53
2019-01-21T11:09:27.366Z,32.23
2019-01-21T11:13:44.407Z,29.70
2019-01-21T11:17:58.127Z,32.17
2019-01-21T11:21:59.771Z,32.93
2019-01-21T11:26:21.983Z,29.47
2019-01-21T11:30:38.084Z,33.07
2019-01-21T11:34:39.725Z,30.83
2019-01-21T11:38:43.020Z,33.83
2019-01-21T11:43:06.954Z,26.00
2019-01-21T11:47:08.968Z,39.53
2019-01-21T11:51:25.392Z,36.70
2019-01-21T11:55:30.134Z,30.30
2019-01-21T11:59:48.339Z,37.63
2019-01-21T12:04:07.819Z,35.47
2019-01-21T12:08:37.153Z,36.10
2019-01-21T12:12:48.948Z,31.60
2019-01-21T12:17:04.558Z,34.37
2019-01-21T12:21:15.203Z,29.10
2019-01-21T12:25:19.612Z,31.77
2019-01-21T12:29:40.936Z,33.53
2019-01-21T12:34:01.844Z,28.43
2019-01-21T12:38:12.064Z,27.43
2019-01-21T12:42:16.810Z,30.23
2019-01-21T12:46:24.554Z,27.33
2019-01-21T12:50:38.092Z,29.23
2019-01-21T12:54:39.768Z,38.37
2019-01-21T12:58:43.935Z,34.70
2019-01-21T13:03:02.890Z,33.73
2019-01-21T13:07:07.900Z,32.73
2019-01-21T13:11:12.199Z,35.13
2019-01-21T13:15:26.062Z,26.27
2019-01-21T13:19:32.373Z,35.90
2019-01-21T13:23:34.002Z,31.57
2019-01-21T13:27:47.522Z,43.80
2019-01-21T13:32:00.831Z,34.57
2019-01-21T13:36:19.040Z,31.60
2019-01-21T13:40:41.475Z,42.23
2019-01-21T13:44:45.918Z,31.83
2019-01-21T13:48:53.279Z,35.60
2019-01-21T13:53:00.504Z,41.13
2019-01-21T13:57:15.732Z,39.67
2019-01-21T14:01:20.007Z,31.70
2019-01-21T14:05:31.125Z,36.23
2019-01-21T14:09:55.451Z,43.90
2019-01-21T14:14:07.401Z,27.10
2019-01-21T14:18:26.961Z,38.77
2019-01-21T14:22:49.565Z,30.40
2019-01-21T14:27:17.042Z,42.10
2019-01-21T14:31:34.902Z,32.77
2019-01-21T14:35:51.990Z,32.63
2019-01-21T14:39:56.367Z,34.17
2019-01-21T14:44:00.857Z,32.77
2019-01-21T14:53:37.820Z,40.00
2019-01-21T14:57:42.397Z,39.80
2019-01-21T15:01:46.892Z,42.70
2019-01-21T15:06:05.502Z,37.97
2019-01-21T15:10:25.491Z,37.13
2019-01-21T15:14:41.845Z,39.00
2019-01-21T15:18:55.171Z,35.43
2019-01-21T15:23:02.967Z,35.33
2019-01-21T15:27:19.339Z,37.60
2019-01-21T15:31:32.938Z,32.10
2019-01-21T15:35:37.616Z,32.23
2019-01-21T15:39:41.958Z,37.87
2019-01-21T15:43:49.230Z,41.07
2019-01-21T15:48:19.402Z,38.13
2019-01-21T15:52:33.123Z,38.70
2019-01-21T15:56:46.800Z,38.53
2019-01-21T16:01:01.419Z,41.43
2019-01-21T16:05:08.944Z,40.03
2019-01-21T16:09:25.666Z,43.23
2019-01-21T16:13:42.261Z,38.10
2019-01-21T16:17:49.082Z,43.07
2019-01-21T16:22:05.680Z,43.37
2019-01-21T16:26:05.056Z,76.10
2019-01-21T16:30:27.353Z,56.40
2019-01-21T16:34:41.213Z,46.97
2019-01-21T16:38:42.964Z,52.87
2019-01-21T16:42:41.425Z,47.73
2019-01-21T16:46:39.813Z,258.40
2019-01-21T16:50:38.402Z,67.10
2019-01-21T16:54:36.829Z,47.00
2019-01-21T16:58:35.239Z,49.93
2019-01-21T17:02:33.728Z,47.47
2019-01-21T17:06:34.131Z,49.57
2019-01-21T17:10:39.121Z,53.27
2019-01-21T17:14:35.590Z,48.20
2019-01-21T17:18:35.004Z,45.23
2019-01-21T17:22:34.053Z,49.77
2019-01-21T17:26:32.831Z,54.03
2019-01-21T17:30:32.964Z,101.00
2019-01-21T17:34:31.453Z,83.40
2019-01-21T17:38:29.930Z,88.90
2019-01-21T17:42:28.402Z,118.63
2019-01-21T17:46:27.308Z,82.10
2019-01-21T17:50:25.947Z,83.13
2019-01-21T17:54:24.364Z,60.87
2019-01-21T17:58:22.822Z,65.50
2019-01-21T18:02:21.305Z,53.40
2019-01-21T18:06:25.891Z,55.57
2019-01-21T18:10:24.402Z,61.13
2019-01-21T18:14:23.232Z,55.23
2019-01-21T18:18:21.929Z,63.37
2019-01-21T18:22:20.317Z,52.87
2019-01-21T18:26:18.886Z,55.70
2019-01-21T18:30:20.695Z,70.73
2019-01-21T18:34:20.130Z,89.57
2019-01-21T18:38:21.440Z,80.93
2019-01-21T18:42:19.907Z,61.57
2019-01-21T18:46:20.658Z,60.27
2019-01-21T18:50:22.011Z,53.07
2019-01-21T18:54:20.527Z,68.10
2019-01-21T18:58:18.930Z,53.53
2019-01-21T19:02:18.208Z,58.97
2019-01-21T19:06:17.786Z,48.43
2019-01-21T19:10:17.951Z,51.60
2019-01-21T19:14:16.430Z,47.60
2019-01-21T19:18:14.866Z,52.70
2019-01-21T19:22:13.276Z,50.37
2019-01-21T19:26:12.663Z,56.37
2019-01-21T19:30:17.010Z,61.10
2019-01-21T19:34:15.585Z,51.97
2019-01-21T19:38:14.009Z,49.70
2019-01-21T19:42:12.432Z,49.50
2019-01-21T19:46:10.900Z,54.20
2019-01-21T19:50:12.620Z,52.53
2019-01-21T19:54:17.135Z,51.13
2019-01-21T19:58:15.571Z,43.73
2019-01-21T20:02:13.991Z,48.63
2019-01-21T20:06:12.531Z,52.77
2019-01-21T20:10:17.444Z,53.33
2019-01-21T20:14:15.923Z,49.60
2019-01-21T20:18:14.753Z,50.80
2019-01-21T20:22:13.453Z,47.13
2019-01-21T20:26:14.359Z,48.23
2019-01-21T20:30:17.920Z,55.00
2019-01-21T20:34:16.352Z,51.60
2019-01-21T20:38:14.746Z,48.93
2019-01-21T20:42:13.439Z,54.07
2019-01-21T20:46:11.850Z,46.43
2019-01-21T20:50:16.272Z,54.50
2019-01-21T20:54:14.758Z,63.07
2019-01-21T20:58:13.413Z,49.50
2019-01-21T21:02:12.263Z,57.23
2019-01-21T21:06:11.630Z,52.83
2019-01-21T21:10:14.945Z,51.60
2019-01-21T21:14:15.219Z,43.03
2019-01-21T21:18:13.675Z,54.60
2019-01-21T21:22:12.121Z,55.33
2019-01-21T21:26:10.703Z,51.63
2019-01-21T21:30:18.327Z,52.57
2019-01-21T21:34:17.130Z,48.93
2019-01-21T21:38:15.710Z,51.80
2019-01-21T21:42:14.545Z,53.73
2019-01-21T21:46:13.053Z,58.63
2019-01-21T21:50:17.054Z,56.23
2019-01-21T21:54:15.554Z,60.13
2019-01-21T21:58:20.676Z,54.67
2019-01-21T22:02:21.217Z,61.20
2019-01-21T22:06:19.740Z,55.97
2019-01-21T22:10:21.671Z,57.47
2019-01-21T22:14:20.874Z,57.40
2019-01-21T22:18:19.359Z,58.33
2019-01-21T22:22:18.264Z,68.23
2019-01-21T22:26:16.653Z,64.03
2019-01-21T22:30:20.528Z,58.37
2019-01-21T22:34:18.972Z,56.23
2019-01-21T22:38:17.412Z,55.70
2019-01-21T22:42:15.905Z,56.13
2019-01-21T22:46:14.377Z,57.00
2019-01-21T22:50:14.751Z,51.83
2019-01-21T22:54:20.931Z,53.23
2019-01-21T22:58:19.428Z,59.00
2019-01-21T23:02:17.903Z,56.73
2019-01-21T23:06:16.325Z,57.17
2019-01-21T23:10:14.742Z,72.40
2019-01-21T23:14:13.147Z,57.07
2019-01-21T23:18:11.569Z,49.37
2019-01-21T23:22:10.093Z,72.30
2019-01-21T23:26:08.531Z,60.73
2019-01-21T23:30:28.303Z,65.40
2019-01-21T23:34:26.714Z,69.37
2019-01-21T23:38:25.210Z,60.13
2019-01-21T23:42:23.636Z,61.23
2019-01-21T23:46:24.945Z,60.70
2019-01-21T23:50:23.410Z,60.87
2019-01-21T23:54:22.262Z,59.50
2019-01-21T23:58:20.714Z,69.13
